createdAt,value
2022-09-04T00:00:14.667Z,18.40
2022-09-04T00:03:04.269Z,18.40
2022-09-04T00:05:36.339Z,18.40
2022-09-04T00:08:36.908Z,18.40
2022-09-04T00:11:13.820Z,18.40
2022-09-04T00:13:47.620Z,18.40
2022-09-04T00:16:21.207Z,18.30
2022-09-04T00:18:59.721Z,18.30
2022-09-04T00:21:35.735Z,18.20
2022-09-04T00:24:10.464Z,18.20
2022-09-04T00:26:50.197Z,18.20
2022-09-04T00:29:27.733Z,18.20
2022-09-04T00:32:04.292Z,18.20
2022-09-04T00:34:50.460Z,18.20
2022-09-04T00:37:24.824Z,18.20
2022-09-04T00:40:00.716Z,18.20
2022-09-04T00:42:47.517Z,18.20
2022-09-04T00:45:36.660Z,18.10
2022-09-04T00:48:25.254Z,18.10
2022-09-04T00:51:18.062Z,18.00
2022-09-04T00:54:06.186Z,18.00
2022-09-04T00:57:41.810Z,18.00
2022-09-04T01:00:14.965Z,17.90
2022-09-04T01:02:59.947Z,17.90
2022-09-04T01:05:45.591Z,17.90
2022-09-04T01:08:25.149Z,17.90
2022-09-04T01:11:07.400Z,17.90
2022-09-04T01:13:42.536Z,17.80
2022-09-04T01:16:16.908Z,17.80
2022-09-04T01:18:56.121Z,17.80
2022-09-04T01:21:57.314Z,17.80
2022-09-04T01:24:48.759Z,17.80
2022-09-04T01:27:25.868Z,17.80
2022-09-04T01:30:05.700Z,17.70
2022-09-04T01:32:47.216Z,17.70
2022-09-04T01:35:27.524Z,17.50
2022-09-04T01:38:04.620Z,17.50
2022-09-04T01:40:42.286Z,17.50
2022-09-04T01:43:14.594Z,17.50
2022-09-04T01:46:22.872Z,17.60
2022-09-04T01:49:00.611Z,17.60
2022-09-04T01:51:39.294Z,17.50
2022-09-04T01:54:23.541Z,17.50
2022-09-04T01:57:07.858Z,17.50
2022-09-04T01:59:53.903Z,17.50
2022-09-04T02:02:28.367Z,17.40
2022-09-04T02:05:08.466Z,17.40
2022-09-04T02:07:47.925Z,17.40
2022-09-04T02:10:30.892Z,17.40
2022-09-04T02:13:16.042Z,17.30
2022-09-04T02:15:58.535Z,17.40
2022-09-04T02:18:43.365Z,17.40
2022-09-04T02:21:24.180Z,17.40
2022-09-04T02:24:08.055Z,17.30
2022-09-04T02:26:42.920Z,17.30
2022-09-04T02:29:26.187Z,17.30
2022-09-04T02:32:04.032Z,17.30
2022-09-04T02:34:41.134Z,17.30
2022-09-04T02:37:18.440Z,17.30
2022-09-04T02:40:01.818Z,17.20
2022-09-04T02:42:42.733Z,17.20
2022-09-04T02:45:22.151Z,17.20
2022-09-04T02:47:59.125Z,17.20
2022-09-04T02:50:58.101Z,17.20
2022-09-04T02:53:33.960Z,17.20
2022-09-04T02:56:17.700Z,17.20
2022-09-04T02:59:08.590Z,17.20
2022-09-04T03:01:49.707Z,17.10
2022-09-04T03:04:26.034Z,17.10
2022-09-04T03:06:58.248Z,17.10
2022-09-04T03:09:33.529Z,17.00
2022-09-04T03:12:10.015Z,17.10
2022-09-04T03:14:45.909Z,17.00
2022-09-04T03:17:24.686Z,17.00
2022-09-04T03:20:00.294Z,17.00
2022-09-04T03:22:34.625Z,16.90
2022-09-04T03:25:24.898Z,16.80
2022-09-04T03:27:53.066Z,16.80
2022-09-04T03:30:21.264Z,16.80
2022-09-04T03:32:59.519Z,16.80
2022-09-04T03:35:36.269Z,16.70
2022-09-04T03:38:18.910Z,16.70
2022-09-04T03:41:03.148Z,16.60
2022-09-04T03:43:52.666Z,16.60
2022-09-04T03:46:39.240Z,16.50
2022-09-04T03:49:21.353Z,16.50
2022-09-04T03:52:05.655Z,16.50
2022-09-04T03:54:54.460Z,16.50
2022-09-04T03:57:40.020Z,16.50
2022-09-04T04:00:15.415Z,16.50
2022-09-04T04:03:11.846Z,16.40
2022-09-04T04:05:48.304Z,16.40
2022-09-04T04:08:47.156Z,16.30
2022-09-04T04:11:43.666Z,16.30
2022-09-04T04:14:51.439Z,16.30
2022-09-04T04:17:50.948Z,16.20
2022-09-04T04:20:30.285Z,16.20
2022-09-04T04:23:29.338Z,16.00
2022-09-04T04:26:09.109Z,15.90
2022-09-04T04:29:03.731Z,15.90
2022-09-04T04:32:10.504Z,15.80
2022-09-04T04:34:54.513Z,15.80
2022-09-04T04:37:38.264Z,15.80
2022-09-04T04:40:16.552Z,15.70
2022-09-04T04:42:54.496Z,15.70
2022-09-04T04:45:48.936Z,15.70
2022-09-04T04:49:08.753Z,15.70
2022-09-04T04:52:02.758Z,15.60
2022-09-04T04:54:52.571Z,15.60
2022-09-04T04:58:36.679Z,15.50
2022-09-04T05:01:18.036Z,15.60
2022-09-04T05:04:03.419Z,15.60
2022-09-04T05:06:40.869Z,15.60
2022-09-04T05:09:18.288Z,15.60
2022-09-04T05:11:55.620Z,15.60
2022-09-04T05:14:42.741Z,15.50
2022-09-04T05:17:28.408Z,15.60
2022-09-04T05:20:24.539Z,15.60
2022-09-04T05:23:07.191Z,15.60
2022-09-04T05:25:42.141Z,15.70
2022-09-04T05:28:25.178Z,15.90
2022-09-04T05:31:06.501Z,16.00
2022-09-04T05:33:47.666Z,16.00
2022-09-04T05:36:25.424Z,16.10
2022-09-04T05:39:06.852Z,16.20
2022-09-04T05:41:53.799Z,16.20
2022-09-04T05:44:47.509Z,16.30
2022-09-04T05:47:30.831Z,16.30
2022-09-04T05:50:35.918Z,16.30
2022-09-04T05:53:35.025Z,16.40
2022-09-04T05:56:43.824Z,16.50
2022-09-04T05:59:51.155Z,16.60
2022-09-04T06:03:13.417Z,16.70
2022-09-04T06:05:59.604Z,16.80
2022-09-04T06:08:59.184Z,16.90
2022-09-04T06:12:02.297Z,17.00
2022-09-04T06:15:00.244Z,17.20
2022-09-04T06:17:43.870Z,17.40
2022-09-04T06:20:40.958Z,17.50
2022-09-04T06:23:45.288Z,17.60
2022-09-04T06:27:07.732Z,17.70
2022-09-04T06:30:08.915Z,17.80
2022-09-04T06:33:32.391Z,17.90
2022-09-04T06:36:35.626Z,18.00
2022-09-04T06:39:32.762Z,18.20
2022-09-04T06:42:17.150Z,18.30
2022-09-04T06:45:04.876Z,18.40
2022-09-04T06:47:52.357Z,18.60
2022-09-04T06:50:31.806Z,18.70
2022-09-04T06:53:16.246Z,18.80
2022-09-04T06:56:07.832Z,19.00
2022-09-04T06:59:23.969Z,19.10
2022-09-04T07:02:28.893Z,19.20
2022-09-04T07:05:11.625Z,19.30
2022-09-04T07:07:53.332Z,19.50
2022-09-04T07:10:26.887Z,19.50
2022-09-04T07:13:33.145Z,19.50
2022-09-04T07:16:31.828Z,19.60
2022-09-04T07:19:21.926Z,19.80
2022-09-04T07:22:03.931Z,19.90
2022-09-04T07:24:56.759Z,20.10
2022-09-04T07:27:37.897Z,20.30
2022-09-04T07:30:09.290Z,20.40
2022-09-04T07:32:43.384Z,20.50
2022-09-04T07:35:20.286Z,20.50
2022-09-04T07:37:58.723Z,20.70
2022-09-04T07:40:34.321Z,20.80
2022-09-04T07:43:14.243Z,20.90
2022-09-04T07:45:47.568Z,21.00
2022-09-04T07:48:26.920Z,21.00
2022-09-04T07:51:10.546Z,21.20
2022-09-04T07:54:05.006Z,21.30
2022-09-04T07:57:02.177Z,21.30
2022-09-04T08:00:13.707Z,21.50
2022-09-04T08:03:24.846Z,21.60
2022-09-04T08:05:56.735Z,21.70
2022-09-04T08:09:03.519Z,21.80
2022-09-04T08:12:01.344Z,22.00
2022-09-04T08:14:53.958Z,22.10
2022-09-04T08:17:44.637Z,22.30
2022-09-04T08:20:34.871Z,22.50
2022-09-04T08:23:29.472Z,22.60
2022-09-04T08:26:14.528Z,22.70
2022-09-04T08:29:15.787Z,22.80
2022-09-04T08:31:55.457Z,23.00
2022-09-04T08:34:57.760Z,23.10
2022-09-04T08:37:30.993Z,23.30
2022-09-04T08:40:32.778Z,23.40
2022-09-04T08:43:26.225Z,23.50
2022-09-04T08:46:36.913Z,23.70
2022-09-04T08:49:55.216Z,23.70
2022-09-04T08:53:03.872Z,23.80
2022-09-04T08:55:57.163Z,23.90
2022-09-04T08:59:02.806Z,24.00
2022-09-04T09:02:19.027Z,24.30
2022-09-04T09:05:59.000Z,24.50
2022-09-04T09:09:20.002Z,24.70
2022-09-04T09:12:16.955Z,24.90
2022-09-04T09:15:22.958Z,24.90
2022-09-04T09:18:12.203Z,25.10
2022-09-04T09:20:54.903Z,25.30
2022-09-04T09:23:41.576Z,25.30
2022-09-04T09:26:26.727Z,25.30
2022-09-04T09:29:41.792Z,25.30
2022-09-04T09:33:14.159Z,25.40
2022-09-04T09:36:29.953Z,25.60
2022-09-04T09:39:31.688Z,25.90
2022-09-04T09:42:38.437Z,25.90
2022-09-04T09:45:47.912Z,25.90
2022-09-04T09:49:15.527Z,26.00
2022-09-04T09:52:23.724Z,26.30
2022-09-04T09:55:33.943Z,26.50
2022-09-04T09:58:55.883Z,26.80
2022-09-04T10:01:50.352Z,27.00
2022-09-04T10:05:31.593Z,27.00
2022-09-04T10:08:36.538Z,27.20
2022-09-04T10:12:16.116Z,27.40
2022-09-04T10:15:46.511Z,27.50
2022-09-04T10:19:18.519Z,27.50
2022-09-04T10:22:29.461Z,27.40
2022-09-04T10:25:38.587Z,27.50
2022-09-04T10:28:59.564Z,27.80
2022-09-04T10:31:49.208Z,28.20
2022-09-04T10:34:48.376Z,27.90
2022-09-04T10:37:34.279Z,27.80
2022-09-04T10:40:38.437Z,28.10
2022-09-04T10:43:47.088Z,28.20
2022-09-04T10:46:23.674Z,27.80
2022-09-04T10:49:21.201Z,27.20
2022-09-04T10:52:24.560Z,27.40
2022-09-04T10:55:31.411Z,27.60
2022-09-04T10:58:27.671Z,27.40
2022-09-04T11:01:36.895Z,27.60
2022-09-04T11:04:39.646Z,27.50
2022-09-04T11:07:28.827Z,27.30
2022-09-04T11:10:29.000Z,27.10
2022-09-04T11:13:57.389Z,26.80
2022-09-04T11:16:43.247Z,26.60
2022-09-04T11:20:18.466Z,26.60
2022-09-04T11:23:40.901Z,26.80
2022-09-04T11:27:07.432Z,27.10
2022-09-04T11:29:59.306Z,27.60
2022-09-04T11:33:06.288Z,27.80
2022-09-04T11:36:05.884Z,27.90
2022-09-04T11:39:37.765Z,27.80
2022-09-04T11:42:32.995Z,27.80
2022-09-04T11:45:33.573Z,28.00
2022-09-04T11:48:37.922Z,28.50
2022-09-04T11:51:41.907Z,29.00
2022-09-04T11:54:30.857Z,29.30
2022-09-04T11:57:11.463Z,29.50
2022-09-04T12:00:12.561Z,29.90
2022-09-04T12:03:29.723Z,29.70
2022-09-04T12:06:37.374Z,29.30
2022-09-04T12:10:11.551Z,29.00
2022-09-04T12:13:47.111Z,29.60
2022-09-04T12:17:21.368Z,29.90
2022-09-04T12:20:24.246Z,30.40
2022-09-04T12:23:19.430Z,30.60
2022-09-04T12:26:22.991Z,30.00
2022-09-04T12:29:39.205Z,29.70
2022-09-04T12:32:43.321Z,29.70
2022-09-04T12:35:56.446Z,30.00
2022-09-04T12:39:05.887Z,29.80
2022-09-04T12:41:48.053Z,30.00
2022-09-04T12:44:27.607Z,30.00
2022-09-04T12:47:13.950Z,30.00
2022-09-04T12:50:10.395Z,30.00
2022-09-04T12:53:05.969Z,30.00
2022-09-04T12:55:47.193Z,29.80
2022-09-04T12:58:33.781Z,29.90
2022-09-04T13:01:15.443Z,29.80
2022-09-04T13:03:58.816Z,29.60
2022-09-04T13:06:35.675Z,29.60
2022-09-04T13:09:18.655Z,29.40
2022-09-04T13:12:04.390Z,29.50
2022-09-04T13:15:08.786Z,29.60
2022-09-04T13:17:48.437Z,29.50
2022-09-04T13:20:30.321Z,29.60
2022-09-04T13:23:21.101Z,29.40
2022-09-04T13:26:13.313Z,29.40
2022-09-04T13:28:54.733Z,29.40
2022-09-04T13:31:48.537Z,29.40
2022-09-04T13:34:31.286Z,29.30
2022-09-04T13:37:10.150Z,29.30
2022-09-04T13:39:57.727Z,29.20
2022-09-04T13:42:59.104Z,29.10
2022-09-04T13:45:31.470Z,28.90
2022-09-04T13:48:06.970Z,28.70
2022-09-04T13:50:42.046Z,28.70
2022-09-04T13:53:19.148Z,28.80
2022-09-04T13:55:54.350Z,28.90
2022-09-04T13:58:25.406Z,28.70
2022-09-04T14:01:00.365Z,28.60
2022-09-04T14:03:38.469Z,28.80
2022-09-04T14:06:11.100Z,28.80
2022-09-04T14:08:41.633Z,28.90
2022-09-04T14:11:25.645Z,28.90
2022-09-04T14:14:37.606Z,28.70
2022-09-04T14:17:08.076Z,28.40
2022-09-04T14:19:48.579Z,28.20
2022-09-04T14:22:33.663Z,28.20
2022-09-04T14:25:13.012Z,28.30
2022-09-04T14:27:52.713Z,28.20
2022-09-04T14:30:23.272Z,28.10
2022-09-04T14:33:07.560Z,28.20
2022-09-04T14:35:46.905Z,28.10
2022-09-04T14:38:54.381Z,28.10
2022-09-04T14:41:36.279Z,28.10
2022-09-04T14:44:22.092Z,28.10
2022-09-04T14:47:03.691Z,28.00
2022-09-04T14:49:34.551Z,28.00
2022-09-04T14:52:14.656Z,28.00
2022-09-04T14:54:43.874Z,27.90
2022-09-04T14:57:20.231Z,27.90
2022-09-04T14:59:58.847Z,27.80
2022-09-04T15:02:34.029Z,27.90
2022-09-04T15:05:21.965Z,27.80
2022-09-04T15:07:55.397Z,27.80
2022-09-04T15:10:29.119Z,27.80
2022-09-04T15:13:33.033Z,27.70
2022-09-04T15:16:18.246Z,27.70
2022-09-04T15:19:06.804Z,27.70
2022-09-04T15:21:45.533Z,27.70
2022-09-04T15:24:24.542Z,27.60
2022-09-04T15:27:04.038Z,27.60
2022-09-04T15:29:39.631Z,27.50
2022-09-04T15:32:13.822Z,27.50
2022-09-04T15:34:43.046Z,27.50
2022-09-04T15:37:22.175Z,27.40
2022-09-04T15:40:04.349Z,27.40
2022-09-04T15:42:41.325Z,27.30
2022-09-04T15:45:21.438Z,27.30
2022-09-04T15:48:16.576Z,27.30
2022-09-04T15:51:00.271Z,27.30
2022-09-04T15:53:37.545Z,27.30
2022-09-04T15:56:10.661Z,27.20
2022-09-04T15:58:53.255Z,27.20
2022-09-04T16:01:26.819Z,27.10
2022-09-04T16:04:07.273Z,27.10
2022-09-04T16:06:45.482Z,27.10
2022-09-04T16:09:27.880Z,27.00
2022-09-04T16:12:06.126Z,27.00
2022-09-04T16:14:44.489Z,26.90
2022-09-04T16:25:51.857Z,26.90
2022-09-04T16:28:31.368Z,26.80
2022-09-04T16:31:02.664Z,26.80
2022-09-04T16:33:39.900Z,26.70
2022-09-04T16:36:13.857Z,26.70
2022-09-04T16:38:48.364Z,26.70
2022-09-04T16:41:25.626Z,26.70
2022-09-04T16:44:26.074Z,26.70
2022-09-04T16:47:04.621Z,26.70
2022-09-04T16:49:47.164Z,26.70
2022-09-04T16:52:35.995Z,26.60
2022-09-04T16:55:11.648Z,26.60
2022-09-04T16:57:51.349Z,26.50
2022-09-04T17:00:22.406Z,26.50
2022-09-04T17:02:57.317Z,26.40
2022-09-04T17:05:35.014Z,26.40
2022-09-04T17:08:11.916Z,26.30
2022-09-04T17:10:46.586Z,26.30
2022-09-04T17:13:22.274Z,26.20
2022-09-04T17:16:03.439Z,26.10
2022-09-04T17:18:32.649Z,26.00
2022-09-04T17:23:39.238Z,26.00
2022-09-04T17:28:59.892Z,26.00
2022-09-04T17:29:22.445Z,25.80
2022-09-04T17:30:25.403Z,25.80
2022-09-04T17:40:31.910Z,25.80
2022-09-04T17:40:37.077Z,25.70
2022-09-04T17:41:34.558Z,25.60
2022-09-04T17:42:06.776Z,25.50
2022-09-04T17:44:47.328Z,25.40
2022-09-04T17:47:29.476Z,25.30
2022-09-04T17:49:59.684Z,25.20
2022-09-04T17:52:32.175Z,25.10
2022-09-04T17:55:07.497Z,25.00
2022-09-04T17:57:56.245Z,24.90
2022-09-04T18:00:26.965Z,24.90
2022-09-04T18:02:58.200Z,24.80
2022-09-04T18:17:13.443Z,24.20
2022-09-04T18:19:47.532Z,23.90
2022-09-04T18:22:33.581Z,23.80
2022-09-04T18:25:16.074Z,23.70
2022-09-04T18:28:06.352Z,23.60
2022-09-04T18:37:10.757Z,23.40
2022-09-04T18:37:15.823Z,23.30
2022-09-04T18:37:18.215Z,23.20
2022-09-04T18:40:08.677Z,23.10
2022-09-04T18:48:30.532Z,22.90
2022-09-04T18:50:30.191Z,22.70
2022-09-04T18:50:39.984Z,22.80
2022-09-04T18:51:31.389Z,22.60
2022-09-04T18:54:10.097Z,22.50
2022-09-04T18:56:45.048Z,22.40
2022-09-04T18:59:20.899Z,22.30
2022-09-04T19:01:56.579Z,22.20
2022-09-04T19:04:43.457Z,22.10
2022-09-04T19:07:30.048Z,21.80
2022-09-04T19:10:19.428Z,21.70
2022-09-04T19:13:01.567Z,21.60
2022-09-04T19:15:49.950Z,21.50
2022-09-04T19:18:30.257Z,21.40
2022-09-04T19:21:23.362Z,21.30
2022-09-04T19:24:01.102Z,21.30
2022-09-04T19:26:40.684Z,21.20
2022-09-04T19:29:18.550Z,21.10
2022-09-04T19:31:56.164Z,21.10
2022-09-04T19:34:36.307Z,21.00
2022-09-04T19:37:26.034Z,20.90
2022-09-04T19:46:18.951Z,20.90
2022-09-04T19:46:19.137Z,20.80
2022-09-04T19:46:26.284Z,20.80
2022-09-04T19:50:07.991Z,20.70
2022-09-04T19:53:24.124Z,20.60
2022-09-04T19:54:55.111Z,20.40
2022-09-04T19:57:45.920Z,20.30
2022-09-04T20:00:43.749Z,20.10
2022-09-04T20:03:29.773Z,20.10
2022-09-04T20:06:19.931Z,20.10
2022-09-04T20:08:56.255Z,20.10
2022-09-04T20:11:35.313Z,20.10
2022-09-04T20:14:14.890Z,20.00
2022-09-04T20:17:00.581Z,20.00
2022-09-04T20:19:38.758Z,20.00
2022-09-04T20:22:15.834Z,20.00
2022-09-04T20:25:01.354Z,19.90
2022-09-04T20:27:36.559Z,19.90
2022-09-04T20:30:12.568Z,19.90
2022-09-04T20:32:55.775Z,19.90
2022-09-04T20:35:34.080Z,19.80
2022-09-04T20:38:23.210Z,19.80
2022-09-04T20:40:57.882Z,19.80
2022-09-04T20:43:36.877Z,19.80
2022-09-04T20:52:45.636Z,19.80
2022-09-04T20:52:54.575Z,19.70
2022-09-04T20:53:04.900Z,19.60
2022-09-04T20:55:18.153Z,19.60
2022-09-04T21:03:07.587Z,19.50
2022-09-04T21:03:18.286Z,19.60
2022-09-04T21:04:42.127Z,19.60
2022-09-04T21:07:27.992Z,19.60
2022-09-04T21:10:10.499Z,19.60
2022-09-04T21:12:44.921Z,19.60
2022-09-04T21:15:25.955Z,19.60
2022-09-04T21:18:37.915Z,19.60
2022-09-04T21:21:29.004Z,19.60
2022-09-04T21:24:39.678Z,19.70
2022-09-04T21:27:54.700Z,19.60
2022-09-04T21:30:44.415Z,19.60
2022-09-04T21:33:28.179Z,19.60
2022-09-04T21:36:25.383Z,19.60
2022-09-04T21:39:39.350Z,19.50
2022-09-04T21:42:53.326Z,19.50
2022-09-04T21:45:35.794Z,19.50
2022-09-04T21:48:34.468Z,19.40
2022-09-04T21:51:28.841Z,19.40
2022-09-04T21:55:11.913Z,19.30
2022-09-04T22:02:29.348Z,19.30
2022-09-04T22:02:38.281Z,19.30
2022-09-04T22:04:06.621Z,19.20
2022-09-04T22:10:15.474Z,19.10
2022-09-04T22:13:31.050Z,19.10
2022-09-04T22:13:38.173Z,19.00
2022-09-04T22:16:02.463Z,19.00
2022-09-04T22:18:58.628Z,19.00
2022-09-04T22:21:41.666Z,18.90
2022-09-04T22:24:56.876Z,18.90
2022-09-04T22:28:09.159Z,18.90
2022-09-04T22:31:00.649Z,18.90
2022-09-04T22:34:15.078Z,18.80
2022-09-04T22:37:12.110Z,18.80
2022-09-04T22:39:58.745Z,18.90
2022-09-04T22:42:48.082Z,18.80
2022-09-04T22:46:02.456Z,18.70
2022-09-04T22:49:12.194Z,18.70
2022-09-04T22:52:10.065Z,18.70
2022-09-04T22:54:57.324Z,18.60
2022-09-04T22:57:44.844Z,18.60
2022-09-04T23:00:18.687Z,18.50
2022-09-04T23:03:33.039Z,18.50
2022-09-04T23:10:50.839Z,18.50
2022-09-04T23:13:52.955Z,18.40
2022-09-04T23:13:54.384Z,18.30
2022-09-04T23:16:49.373Z,18.20
2022-09-04T23:26:38.423Z,18.20
2022-09-04T23:26:50.541Z,18.20
2022-09-04T23:27:28.261Z,18.20
2022-09-04T23:38:49.842Z,17.70
2022-09-04T23:41:36.790Z,17.60
2022-09-04T23:45:06.181Z,17.50
2022-09-04T23:47:52.356Z,17.30
2022-09-04T23:50:36.011Z,17.30
2022-09-04T23:53:21.314Z,17.30
2022-09-04T23:56:16.187Z,17.20
2022-09-04T23:59:21.329Z,17.20
